Colfax, WA (99111)

10:15 AM PST on November 21, 2014 (GMT -0800)
APRSWXNET Pullman WA US | Change Station
CLOSE
Current Station
Personal Weather Station
Location: Pullman, WA
Elevation: 2583 ft
Nearby Weather Stations
Active Advisory: Air Stagnation Advisory

Elev 2583 ft 46.75 °N, 117.18 °W | Updated 34 minutes ago

Overcast
Overcast
39 °F
Feels Like 33 °F
N
8
Wind Variable Wind from East
Gusts 12.0 mph

Today
High -- | Low -- °F
--% Chance of Precip.
Yesterday
High -- | Low -- °F
Precip. -- in
7:01 AM 4:09 PM
Waning Crescent, 1% visible
Pressure 29.95 in
Visibility 10.0 miles
Clouds Scattered Clouds 5500 ft
Mostly Cloudy 6500 ft
Overcast 8000 ft
Windchill 33 °F
Dew Point 34 °F
Humidity 82%
Rainfall 0.06 in
Snow Depth Not available.
UV 0 out of 12
Pollen .10 out of 12
Air Quality Not available.
Flu Activity Not available.
METAR KPUW 211753Z AUTO 12011KT 10SM SCT055 BKN065 OVC080 04/01 A2990 RMK AO2 SLP140 T00390011 10039 20006 58013

More Conditions Fewer Conditions

Pressure 29.95 in
Visibility 10.0 miles
Clouds Scattered Clouds 5500 ft
Mostly Cloudy 6500 ft
Overcast 8000 ft
Windchill 33 °F
Dew Point 34 °F
Humidity 82%
Rainfall 0.06 in
Snow Depth Not available.
UV 0 out of 12
Pollen .10 out of 12
Air Quality Not available.
Flu Activity Not available.
METAR KPUW 211753Z AUTO 12011KT 10SM SCT055 BKN065 OVC080 04/01 A2990 RMK AO2 SLP140 T00390011 10039 20006 58013

More Conditions Fewer Conditions

10-Day Weather Forecast

Almanac

Astronomy

Nov. 21, 2014 Rise Set
Actual Time
Civil Twilight
Nautical Twilight
Astronomical Twilight
Moon
Length of Visible Light
Length of Day
Tomorrow will be .
, % of the Moon is Illuminated

Today's Extremes

State Highs State Lows

Community

WunderPhotos

Upload Photos

1,772,690 photos uploaded!

WunderBlogs® & News

Nearby

Air Quality

  Air Quality AQ Index Pollutant
Not available.

Snow Depth

Station Depth Elevation

Earthquake Activity

City Distance Mag. Time & Date
Minimum magnitude displayed is 2.5.

Coastal Water Temperatures

Place Temperature

Nearby Weather Stations